sensor_id;sensor_type;location;lat;lon;timestamp;pressure;altitude;pressure_sealevel;temperature;humidity
62694;BME280;48759;52.544;13.418;2022-08-21T00:00:12;100906.38;;;29.59;100.00
62694;BME280;48759;52.544;13.418;2022-08-21T00:02:46;100906.00;;;29.36;100.00
62694;BME280;48759;52.544;13.418;2022-08-21T00:05:16;100896.25;;;28.36;100.00
62694;BME280;48759;52.544;13.418;2022-08-21T00:07:43;100902.66;;;29.29;100.00
62694;BME280;48759;52.544;13.418;2022-08-21T00:10:10;100896.91;;;28.67;100.00
62694;BME280;48759;52.544;13.418;2022-08-21T00:12:38;100904.97;;;28.24;100.00
62694;BME280;48759;52.544;13.418;2022-08-21T00:15:07;100899.47;;;27.83;100.00
62694;BME280;48759;52.544;13.418;2022-08-21T00:17:34;100902.09;;;28.39;100.00
62694;BME280;48759;52.544;13.418;2022-08-21T00:20:02;100890.31;;;28.42;100.00
62694;BME280;48759;52.544;13.418;2022-08-21T00:22:31;100896.00;;;28.22;100.00
62694;BME280;48759;52.544;13.418;2022-08-21T00:24:57;100883.16;;;27.96;100.00
62694;BME280;48759;52.544;13.418;2022-08-21T00:27:24;100881.63;;;28.34;100.00
62694;BME280;48759;52.544;13.418;2022-08-21T00:29:50;100880.41;;;27.80;100.00
62694;BME280;48759;52.544;13.418;2022-08-21T00:32:20;100882.41;;;27.24;100.00
62694;BME280;48759;52.544;13.418;2022-08-21T00:34:47;100891.66;;;27.60;100.00
62694;BME280;48759;52.544;13.418;2022-08-21T00:37:13;100895.84;;;26.97;100.00
62694;BME280;48759;52.544;13.418;2022-08-21T00:39:41;100889.44;;;27.57;100.00
62694;BME280;48759;52.544;13.418;2022-08-21T00:42:08;100896.06;;;27.92;100.00
62694;BME280;48759;52.544;13.418;2022-08-21T00:44:34;100895.59;;;27.13;100.00
62694;BME280;48759;52.544;13.418;2022-08-21T00:47:01;100900.66;;;27.27;100.00
62694;BME280;48759;52.544;13.418;2022-08-21T00:49:28;100900.31;;;27.84;100.00
62694;BME280;48759;52.544;13.418;2022-08-21T00:51:57;100896.88;;;28.12;100.00
62694;BME280;48759;52.544;13.418;2022-08-21T00:54:27;100897.72;;;28.13;100.00
62694;BME280;48759;52.544;13.418;2022-08-21T00:57:00;100897.72;;;28.18;100.00
62694;BME280;48759;52.544;13.418;2022-08-21T00:59:32;100895.41;;;28.30;100.00
62694;BME280;48759;52.544;13.418;2022-08-21T01:01:58;100889.75;;;28.45;100.00
62694;BME280;48759;52.544;13.418;2022-08-21T01:04:25;100896.81;;;28.87;100.00
62694;BME280;48759;52.544;13.418;2022-08-21T01:06:52;100899.16;;;28.64;100.00
62694;BME280;48759;52.544;13.418;2022-08-21T01:09:20;100899.13;;;28.75;100.00
62694;BME280;48759;52.544;13.418;2022-08-21T01:11:47;100902.78;;;28.70;100.00
62694;BME280;48759;52.544;13.418;2022-08-21T01:14:15;100902.56;;;29.73;100.00
62694;BME280;48759;52.544;13.418;2022-08-21T01:16:46;100898.72;;;29.30;100.00
62694;BME280;48759;52.544;13.418;2022-08-21T01:19:14;100899.97;;;28.16;100.00
62694;BME280;48759;52.544;13.418;2022-08-21T01:21:43;100905.13;;;27.18;100.00
62694;BME280;48759;52.544;13.418;2022-08-21T01:24:11;100896.13;;;27.05;100.00
62694;BME280;48759;52.544;13.418;2022-08-21T01:26:38;100897.69;;;28.28;100.00
62694;BME280;48759;52.544;13.418;2022-08-21T01:29:08;100887.56;;;28.27;100.00
62694;BME280;48759;52.544;13.418;2022-08-21T01:31:38;100892.66;;;28.20;100.00
62694;BME280;48759;52.544;13.418;2022-08-21T01:34:04;100885.41;;;27.94;100.00
62694;BME280;48759;52.544;13.418;2022-08-21T01:36:31;100887.81;;;26.28;100.00
62694;BME280;48759;52.544;13.418;2022-08-21T01:39:01;100897.69;;;28.23;100.00
62694;BME280;48759;52.544;13.418;2022-08-21T01:41:28;100897.09;;;28.36;100.00
62694;BME280;48759;52.544;13.418;2022-08-21T01:43:55;100900.06;;;28.55;100.00
62694;BME280;48759;52.544;13.418;2022-08-21T01:46:22;100905.97;;;27.03;100.00
62694;BME280;48759;52.544;13.418;2022-08-21T01:48:48;100901.44;;;26.09;100.00
62694;BME280;48759;52.544;13.418;2022-08-21T01:51:15;100897.84;;;27.11;100.00
62694;BME280;48759;52.544;13.418;2022-08-21T01:53:41;100897.28;;;27.15;100.00
62694;BME280;48759;52.544;13.418;2022-08-21T01:56:12;100894.72;;;27.69;100.00
62694;BME280;48759;52.544;13.418;2022-08-21T01:58:40;100892.66;;;25.16;100.00
62694;BME280;48759;52.544;13.418;2022-08-21T02:01:07;100899.50;;;27.12;100.00
62694;BME280;48759;52.544;13.418;2022-08-21T02:03:34;100899.78;;;27.46;100.00
62694;BME280;48759;52.544;13.418;2022-08-21T02:06:01;100903.66;;;26.85;100.00
62694;BME280;48759;52.544;13.418;2022-08-21T02:08:32;100909.53;;;26.78;100.00
62694;BME280;48759;52.544;13.418;2022-08-21T02:10:58;100895.56;;;27.44;100.00
62694;BME280;48759;52.544;13.418;2022-08-21T02:13:26;100906.22;;;26.91;100.00
62694;BME280;48759;52.544;13.418;2022-08-21T02:15:53;100895.53;;;27.90;100.00
62694;BME280;48759;52.544;13.418;2022-08-21T02:18:20;100896.28;;;28.25;100.00
62694;BME280;48759;52.544;13.418;2022-08-21T02:20:48;100895.19;;;28.11;100.00
62694;BME280;48759;52.544;13.418;2022-08-21T02:23:15;100900.78;;;29.54;100.00
62694;BME280;48759;52.544;13.418;2022-08-21T02:25:42;100906.97;;;29.17;100.00
62694;BME280;48759;52.544;13.418;2022-08-21T02:28:13;100907.19;;;28.32;100.00
62694;BME280;48759;52.544;13.418;2022-08-21T02:30:44;100889.41;;;27.37;100.00
62694;BME280;48759;52.544;13.418;2022-08-21T02:33:11;100899.75;;;27.87;100.00
62694;BME280;48759;52.544;13.418;2022-08-21T02:35:40;100903.38;;;28.67;100.00
62694;BME280;48759;52.544;13.418;2022-08-21T02:38:09;100901.50;;;28.52;100.00
62694;BME280;48759;52.544;13.418;2022-08-21T02:40:39;100893.22;;;28.12;100.00
62694;BME280;48759;52.544;13.418;2022-08-21T02:43:06;100904.78;;;28.64;100.00
62694;BME280;48759;52.544;13.418;2022-08-21T02:45:34;100900.75;;;28.32;100.00
62694;BME280;48759;52.544;13.418;2022-08-21T02:48:05;100898.28;;;28.20;100.00
62694;BME280;48759;52.544;13.418;2022-08-21T02:50:34;100892.63;;;28.25;100.00
62694;BME280;48759;52.544;13.418;2022-08-21T02:53:01;100899.22;;;28.54;100.00
62694;BME280;48759;52.544;13.418;2022-08-21T02:55:30;100893.34;;;27.66;100.00
62694;BME280;48759;52.544;13.418;2022-08-21T02:57:58;100891.94;;;27.08;100.00
62694;BME280;48759;52.544;13.418;2022-08-21T03:00:28;100888.78;;;26.64;100.00
62694;BME280;48759;52.544;13.418;2022-08-21T03:02:56;100902.22;;;27.99;100.00
62694;BME280;48759;52.544;13.418;2022-08-21T03:05:26;100908.31;;;28.31;100.00
62694;BME280;48759;52.544;13.418;2022-08-21T03:07:53;100905.41;;;26.96;100.00
62694;BME280;48759;52.544;13.418;2022-08-21T03:10:21;100896.59;;;28.19;100.00
62694;BME280;48759;52.544;13.418;2022-08-21T03:12:48;100893.44;;;25.44;100.00
62694;BME280;48759;52.544;13.418;2022-08-21T03:15:18;100891.38;;;27.21;100.00
62694;BME280;48759;52.544;13.418;2022-08-21T03:17:45;100885.41;;;26.62;100.00
62694;BME280;48759;52.544;13.418;2022-08-21T03:20:15;100894.97;;;27.98;100.00
62694;BME280;48759;52.544;13.418;2022-08-21T03:22:43;100892.75;;;27.44;100.00
62694;BME280;48759;52.544;13.418;2022-08-21T03:25:10;100884.31;;;27.90;100.00
62694;BME280;48759;52.544;13.418;2022-08-21T03:27:37;100890.13;;;25.89;100.00
62694;BME280;48759;52.544;13.418;2022-08-21T03:30:05;100905.94;;;26.98;100.00
62694;BME280;48759;52.544;13.418;2022-08-21T03:32:32;100896.91;;;26.70;100.00
62694;BME280;48759;52.544;13.418;2022-08-21T03:35:00;100897.19;;;26.64;100.00
62694;BME280;48759;52.544;13.418;2022-08-21T03:37:27;100888.94;;;26.27;100.00
62694;BME280;48759;52.544;13.418;2022-08-21T03:39:56;100899.38;;;26.52;100.00
62694;BME280;48759;52.544;13.418;2022-08-21T03:42:22;100885.84;;;26.28;100.00
62694;BME280;48759;52.544;13.418;2022-08-21T03:44:49;100895.84;;;26.19;100.00
62694;BME280;48759;52.544;13.418;2022-08-21T03:47:15;100893.16;;;26.34;100.00
62694;BME280;48759;52.544;13.418;2022-08-21T03:49:42;100900.28;;;26.78;100.00
62694;BME280;48759;52.544;13.418;2022-08-21T03:52:08;100898.66;;;26.19;100.00
62694;BME280;48759;52.544;13.418;2022-08-21T03:54:35;100897.41;;;25.90;100.00
62694;BME280;48759;52.544;13.418;2022-08-21T03:57:03;100894.34;;;26.54;100.00
62694;BME280;48759;52.544;13.418;2022-08-21T03:59:29;100895.47;;;26.53;100.00
62694;BME280;48759;52.544;13.418;2022-08-21T04:01:58;100891.09;;;26.97;100.00
62694;BME280;48759;52.544;13.418;2022-08-21T04:04:25;100905.13;;;27.23;100.00
62694;BME280;48759;52.544;13.418;2022-08-21T04:06:52;100900.63;;;27.82;100.00
62694;BME280;48759;52.544;13.418;2022-08-21T04:09:19;100903.97;;;27.79;100.00
62694;BME280;48759;52.544;13.418;2022-08-21T04:11:46;100905.97;;;27.03;100.00
62694;BME280;48759;52.544;13.418;2022-08-21T04:14:14;100904.81;;;27.85;100.00
62694;BME280;48759;52.544;13.418;2022-08-21T04:16:42;100902.88;;;27.40;100.00
62694;BME280;48759;52.544;13.418;2022-08-21T04:19:09;100914.91;;;27.05;100.00
62694;BME280;48759;52.544;13.418;2022-08-21T04:21:37;100919.63;;;26.79;100.00
62694;BME280;48759;52.544;13.418;2022-08-21T04:24:04;100920.25;;;27.22;100.00
62694;BME280;48759;52.544;13.418;2022-08-21T04:26:31;100912.38;;;26.98;100.00
62694;BME280;48759;52.544;13.418;2022-08-21T04:28:58;100914.56;;;26.81;100.00
62694;BME280;48759;52.544;13.418;2022-08-21T04:31:26;100912.75;;;26.34;100.00
62694;BME280;48759;52.544;13.418;2022-08-21T04:33:54;100914.31;;;26.88;100.00
62694;BME280;48759;52.544;13.418;2022-08-21T04:36:22;100915.22;;;27.08;100.00
62694;BME280;48759;52.544;13.418;2022-08-21T04:38:48;100907.81;;;26.57;100.00
62694;BME280;48759;52.544;13.418;2022-08-21T04:41:15;100917.59;;;26.59;100.00
62694;BME280;48759;52.544;13.418;2022-08-21T04:43:41;100915.31;;;25.89;100.00
62694;BME280;48759;52.544;13.418;2022-08-21T04:46:08;100909.00;;;25.67;100.00
62694;BME280;48759;52.544;13.418;2022-08-21T04:48:37;100902.03;;;24.78;100.00
62694;BME280;48759;52.544;13.418;2022-08-21T04:51:07;100902.66;;;24.85;100.00
62694;BME280;48759;52.544;13.418;2022-08-21T04:53:40;100909.19;;;24.69;100.00
62694;BME280;48759;52.544;13.418;2022-08-21T04:56:12;100910.06;;;26.03;100.00
62694;BME280;48759;52.544;13.418;2022-08-21T04:58:39;100914.53;;;25.98;100.00
62694;BME280;48759;52.544;13.418;2022-08-21T05:01:11;100915.13;;;25.00;100.00
62694;BME280;48759;52.544;13.418;2022-08-21T05:03:41;100909.09;;;25.77;100.00
62694;BME280;48759;52.544;13.418;2022-08-21T05:06:10;100903.91;;;26.01;100.00
62694;BME280;48759;52.544;13.418;2022-08-21T05:08:40;100910.16;;;26.95;100.00
62694;BME280;48759;52.544;13.418;2022-08-21T05:11:07;100913.59;;;25.83;100.00
62694;BME280;48759;52.544;13.418;2022-08-21T05:13:34;100928.56;;;25.62;100.00
62694;BME280;48759;52.544;13.418;2022-08-21T05:16:01;100911.16;;;25.54;100.00
62694;BME280;48759;52.544;13.418;2022-08-21T05:18:28;100917.28;;;26.46;100.00
62694;BME280;48759;52.544;13.418;2022-08-21T05:20:56;100921.28;;;26.08;100.00
62694;BME280;48759;52.544;13.418;2022-08-21T05:23:23;100920.16;;;25.30;100.00
62694;BME280;48759;52.544;13.418;2022-08-21T05:25:50;100923.44;;;26.43;100.00
62694;BME280;48759;52.544;13.418;2022-08-21T05:28:17;100923.44;;;26.43;100.00
62694;BME280;48759;52.544;13.418;2022-08-21T05:30:44;100928.38;;;27.08;100.00
62694;BME280;48759;52.544;13.418;2022-08-21T05:33:11;100928.19;;;26.42;100.00
62694;BME280;48759;52.544;13.418;2022-08-21T05:35:38;100934.75;;;26.83;100.00
62694;BME280;48759;52.544;13.418;2022-08-21T05:38:06;100940.41;;;26.88;100.00
62694;BME280;48759;52.544;13.418;2022-08-21T05:40:33;100939.34;;;27.50;100.00
62694;BME280;48759;52.544;13.418;2022-08-21T05:43:00;100939.00;;;26.91;100.00
62694;BME280;48759;52.544;13.418;2022-08-21T05:45:28;100944.94;;;27.40;100.00
62694;BME280;48759;52.544;13.418;2022-08-21T05:47:55;100942.06;;;26.84;100.00
62694;BME280;48759;52.544;13.418;2022-08-21T05:50:21;100939.78;;;26.76;100.00
62694;BME280;48759;52.544;13.418;2022-08-21T05:52:48;100939.88;;;27.01;100.00
62694;BME280;48759;52.544;13.418;2022-08-21T05:55:16;100938.09;;;26.70;100.00
62694;BME280;48759;52.544;13.418;2022-08-21T05:57:42;100938.72;;;28.09;100.00
62694;BME280;48759;52.544;13.418;2022-08-21T06:00:10;100941.00;;;27.92;100.00
62694;BME280;48759;52.544;13.418;2022-08-21T06:02:37;100948.31;;;27.42;100.00
62694;BME280;48759;52.544;13.418;2022-08-21T06:05:05;100949.72;;;27.29;100.00
62694;BME280;48759;52.544;13.418;2022-08-21T06:07:31;100953.34;;;27.45;100.00
62694;BME280;48759;52.544;13.418;2022-08-21T06:09:58;100945.38;;;28.38;97.96
62694;BME280;48759;52.544;13.418;2022-08-21T06:12:26;100949.09;;;28.18;96.35
62694;BME280;48759;52.544;13.418;2022-08-21T06:14:52;100949.53;;;29.05;88.89
62694;BME280;48759;52.544;13.418;2022-08-21T06:17:19;100941.25;;;28.05;97.11
62694;BME280;48759;52.544;13.418;2022-08-21T06:19:50;100955.06;;;27.26;100.00
62694;BME280;48759;52.544;13.418;2022-08-21T06:22:17;100942.44;;;26.30;100.00
62694;BME280;48759;52.544;13.418;2022-08-21T06:24:43;100946.09;;;27.34;100.00
62694;BME280;48759;52.544;13.418;2022-08-21T06:27:10;100945.50;;;27.47;100.00
62694;BME280;48759;52.544;13.418;2022-08-21T06:29:38;100949.00;;;26.61;100.00
62694;BME280;48759;52.544;13.418;2022-08-21T06:32:05;100949.25;;;26.65;100.00
62694;BME280;48759;52.544;13.418;2022-08-21T06:34:35;100950.56;;;27.35;100.00
62694;BME280;48759;52.544;13.418;2022-08-21T06:37:02;100947.75;;;27.09;100.00
62694;BME280;48759;52.544;13.418;2022-08-21T06:39:29;100947.50;;;27.62;100.00
62694;BME280;48759;52.544;13.418;2022-08-21T06:41:56;100942.63;;;28.13;96.62
62694;BME280;48759;52.544;13.418;2022-08-21T06:44:22;100953.84;;;28.23;94.87
62694;BME280;48759;52.544;13.418;2022-08-21T06:46:50;100956.91;;;29.40;86.14
62694;BME280;48759;52.544;13.418;2022-08-21T06:49:17;100957.81;;;28.17;90.43
62694;BME280;48759;52.544;13.418;2022-08-21T06:51:43;100946.59;;;28.02;94.92
62694;BME280;48759;52.544;13.418;2022-08-21T06:54:10;100939.06;;;28.77;89.04
62694;BME280;48759;52.544;13.418;2022-08-21T06:56:37;100956.59;;;29.02;87.20
62694;BME280;48759;52.544;13.418;2022-08-21T06:59:04;100948.53;;;28.91;89.12
62694;BME280;48759;52.544;13.418;2022-08-21T07:01:31;100950.81;;;28.79;87.66
62694;BME280;48759;52.544;13.418;2022-08-21T07:03:59;100951.47;;;29.10;85.59
62694;BME280;48759;52.544;13.418;2022-08-21T07:06:26;100944.88;;;28.26;87.56
62694;BME280;48759;52.544;13.418;2022-08-21T07:08:52;100953.78;;;29.75;80.40
62694;BME280;48759;52.544;13.418;2022-08-21T07:11:20;100952.41;;;29.34;83.37
62694;BME280;48759;52.544;13.418;2022-08-21T07:13:47;100947.19;;;29.17;82.24
62694;BME280;48759;52.544;13.418;2022-08-21T07:16:14;100948.97;;;29.08;81.87
62694;BME280;48759;52.544;13.418;2022-08-21T07:18:40;100944.81;;;29.40;81.11
62694;BME280;48759;52.544;13.418;2022-08-21T07:21:08;100943.25;;;28.74;82.66
62694;BME280;48759;52.544;13.418;2022-08-21T07:23:39;100945.94;;;28.94;81.72
62694;BME280;48759;52.544;13.418;2022-08-21T07:26:06;100944.00;;;28.31;83.85
62694;BME280;48759;52.544;13.418;2022-08-21T07:28:33;100941.81;;;28.82;78.01
62694;BME280;48759;52.544;13.418;2022-08-21T07:31:01;100940.41;;;29.23;76.77
62694;BME280;48759;52.544;13.418;2022-08-21T07:33:29;100939.47;;;28.99;76.30
62694;BME280;48759;52.544;13.418;2022-08-21T07:35:56;100944.50;;;29.02;75.89
62694;BME280;48759;52.544;13.418;2022-08-21T07:38:25;100935.31;;;29.25;69.43
62694;BME280;48759;52.544;13.418;2022-08-21T07:40:53;100930.81;;;29.24;66.10
62694;BME280;48759;52.544;13.418;2022-08-21T07:43:20;100939.84;;;31.41;59.46
62694;BME280;48759;52.544;13.418;2022-08-21T07:45:47;100936.94;;;30.47;60.01
62694;BME280;48759;52.544;13.418;2022-08-21T07:48:15;100943.16;;;30.68;58.37
62694;BME280;48759;52.544;13.418;2022-08-21T07:50:42;100946.25;;;31.79;55.82
62694;BME280;48759;52.544;13.418;2022-08-21T07:53:09;100941.88;;;30.98;56.59
62694;BME280;48759;52.544;13.418;2022-08-21T07:55:37;100938.09;;;29.98;61.74
62694;BME280;48759;52.544;13.418;2022-08-21T07:58:04;100936.22;;;30.60;58.72
62694;BME280;48759;52.544;13.418;2022-08-21T08:00:32;100940.25;;;30.06;59.12
62694;BME280;48759;52.544;13.418;2022-08-21T08:02:59;100933.75;;;29.09;64.01
62694;BME280;48759;52.544;13.418;2022-08-21T08:05:28;100936.56;;;29.14;63.79
62694;BME280;48759;52.544;13.418;2022-08-21T08:07:56;100954.50;;;27.90;67.20
62694;BME280;48759;52.544;13.418;2022-08-21T08:10:23;100934.78;;;28.10;67.76
62694;BME280;48759;52.544;13.418;2022-08-21T08:12:51;100947.19;;;27.18;72.26
62694;BME280;48759;52.544;13.418;2022-08-21T08:15:23;100938.69;;;28.24;67.14
62694;BME280;48759;52.544;13.418;2022-08-21T08:17:50;100942.19;;;27.55;63.05
62694;BME280;48759;52.544;13.418;2022-08-21T08:20:18;100941.44;;;28.44;63.33
62694;BME280;48759;52.544;13.418;2022-08-21T08:22:45;100932.63;;;27.66;65.47
62694;BME280;48759;52.544;13.418;2022-08-21T08:25:13;100934.31;;;27.57;67.52
62694;BME280;48759;52.544;13.418;2022-08-21T08:27:40;100940.94;;;28.22;64.06
62694;BME280;48759;52.544;13.418;2022-08-21T08:30:11;100930.94;;;27.65;65.41
62694;BME280;48759;52.544;13.418;2022-08-21T08:32:38;100939.88;;;27.87;63.95
62694;BME280;48759;52.544;13.418;2022-08-21T08:35:06;100940.34;;;28.30;62.41
62694;BME280;48759;52.544;13.418;2022-08-21T08:37:33;100946.53;;;28.22;62.78
62694;BME280;48759;52.544;13.418;2022-08-21T08:40:03;100939.28;;;28.21;63.58
62694;BME280;48759;52.544;13.418;2022-08-21T08:42:33;100948.81;;;29.28;61.54
62694;BME280;48759;52.544;13.418;2022-08-21T08:45:02;100936.78;;;28.74;59.90
62694;BME280;48759;52.544;13.418;2022-08-21T08:47:31;100932.69;;;29.05;59.18
62694;BME280;48759;52.544;13.418;2022-08-21T08:50:03;100948.00;;;29.62;57.09
62694;BME280;48759;52.544;13.418;2022-08-21T08:52:33;100943.03;;;28.60;59.01
62694;BME280;48759;52.544;13.418;2022-08-21T08:55:03;100935.38;;;29.20;58.55
62694;BME280;48759;52.544;13.418;2022-08-21T08:57:32;100934.25;;;29.84;55.76
62694;BME280;48759;52.544;13.418;2022-08-21T09:00:00;100931.06;;;30.20;53.71
62694;BME280;48759;52.544;13.418;2022-08-21T09:02:28;100925.03;;;30.74;53.73
62694;BME280;48759;52.544;13.418;2022-08-21T09:04:59;100924.97;;;30.12;52.14
62694;BME280;48759;52.544;13.418;2022-08-21T09:07:33;100930.59;;;30.98;51.22
62694;BME280;48759;52.544;13.418;2022-08-21T09:10:12;100935.78;;;30.90;51.44
62694;BME280;48759;52.544;13.418;2022-08-21T09:12:50;100943.78;;;29.59;52.54
62694;BME280;48759;52.544;13.418;2022-08-21T09:15:27;100928.97;;;30.30;50.49
62694;BME280;48759;52.544;13.418;2022-08-21T09:18:13;100932.16;;;31.09;50.26
62694;BME280;48759;52.544;13.418;2022-08-21T09:20:57;100938.09;;;31.26;49.82
62694;BME280;48759;52.544;13.418;2022-08-21T09:23:32;100925.75;;;29.89;51.22
62694;BME280;48759;52.544;13.418;2022-08-21T09:26:07;100931.84;;;30.92;49.67
62694;BME280;48759;52.544;13.418;2022-08-21T09:28:37;100927.09;;;30.68;49.87
62694;BME280;48759;52.544;13.418;2022-08-21T09:31:07;100931.00;;;30.72;50.00
62694;BME280;48759;52.544;13.418;2022-08-21T09:33:34;100926.56;;;30.66;49.06
62694;BME280;48759;52.544;13.418;2022-08-21T09:36:03;100925.41;;;30.67;49.26
62694;BME280;48759;52.544;13.418;2022-08-21T09:38:32;100924.38;;;30.16;50.03
62694;BME280;48759;52.544;13.418;2022-08-21T09:41:02;100933.88;;;29.67;51.48
62694;BME280;48759;52.544;13.418;2022-08-21T09:43:30;100936.50;;;31.52;48.93
62694;BME280;48759;52.544;13.418;2022-08-21T09:46:09;100927.84;;;31.68;46.55
62694;BME280;48759;52.544;13.418;2022-08-21T09:48:42;100928.34;;;31.70;46.40
62694;BME280;48759;52.544;13.418;2022-08-21T09:51:13;100919.25;;;30.84;46.67
62694;BME280;48759;52.544;13.418;2022-08-21T09:53:45;100924.59;;;29.95;49.03
62694;BME280;48759;52.544;13.418;2022-08-21T09:56:20;100928.47;;;30.89;48.12
62694;BME280;48759;52.544;13.418;2022-08-21T09:59:19;100934.09;;;31.64;46.29
62694;BME280;48759;52.544;13.418;2022-08-21T10:01:49;100935.69;;;31.52;46.13
62694;BME280;48759;52.544;13.418;2022-08-21T10:04:21;100926.69;;;29.80;48.09
62694;BME280;48759;52.544;13.418;2022-08-21T10:06:49;100925.56;;;31.83;45.03
62694;BME280;48759;52.544;13.418;2022-08-21T10:09:18;100927.88;;;31.30;44.88
62694;BME280;48759;52.544;13.418;2022-08-21T10:11:50;100930.13;;;31.47;44.93
62694;BME280;48759;52.544;13.418;2022-08-21T10:14:28;100926.91;;;31.53;44.38
62694;BME280;48759;52.544;13.418;2022-08-21T10:17:02;100933.13;;;32.15;43.81
62694;BME280;48759;52.544;13.418;2022-08-21T10:19:45;100924.84;;;32.60;42.31
62694;BME280;48759;52.544;13.418;2022-08-21T10:22:22;100932.47;;;33.89;40.62
62694;BME280;48759;52.544;13.418;2022-08-21T10:24:59;100929.53;;;33.28;41.33
62694;BME280;48759;52.544;13.418;2022-08-21T10:27:33;100930.41;;;33.59;40.22
62694;BME280;48759;52.544;13.418;2022-08-21T10:30:07;100939.00;;;32.60;41.23
62694;BME280;48759;52.544;13.418;2022-08-21T10:32:55;100929.22;;;32.93;40.25
62694;BME280;48759;52.544;13.418;2022-08-21T10:35:27;100931.97;;;33.87;39.12
62694;BME280;48759;52.544;13.418;2022-08-21T10:38:09;100934.66;;;33.70;38.82
62694;BME280;48759;52.544;13.418;2022-08-21T10:40:51;100930.03;;;34.05;38.39
62694;BME280;48759;52.544;13.418;2022-08-21T10:43:28;100933.22;;;34.43;37.60
62694;BME280;48759;52.544;13.418;2022-08-21T10:46:03;100938.34;;;34.81;36.91
62694;BME280;48759;52.544;13.418;2022-08-21T10:48:36;100940.84;;;34.91;36.34
62694;BME280;48759;52.544;13.418;2022-08-21T10:51:10;100935.63;;;33.88;37.99
62694;BME280;48759;52.544;13.418;2022-08-21T10:53:54;100935.25;;;34.43;37.47
62694;BME280;48759;52.544;13.418;2022-08-21T10:56:26;100935.84;;;34.88;36.40
62694;BME280;48759;52.544;13.418;2022-08-21T10:59:20;100933.19;;;35.17;34.90
62694;BME280;48759;52.544;13.418;2022-08-21T11:01:56;100931.09;;;33.20;37.71
62694;BME280;48759;52.544;13.418;2022-08-21T11:04:28;100929.72;;;32.95;37.12
62694;BME280;48759;52.544;13.418;2022-08-21T11:07:00;100934.75;;;34.10;35.46
62694;BME280;48759;52.544;13.418;2022-08-21T11:09:30;100926.69;;;33.28;36.15
62694;BME280;48759;52.544;13.418;2022-08-21T11:12:05;100932.22;;;34.48;34.66
62694;BME280;48759;52.544;13.418;2022-08-21T11:14:39;100937.22;;;34.34;35.05
62694;BME280;48759;52.544;13.418;2022-08-21T11:17:09;100929.88;;;34.02;35.44
62694;BME280;48759;52.544;13.418;2022-08-21T11:19:42;100927.56;;;34.04;34.79
62694;BME280;48759;52.544;13.418;2022-08-21T11:22:15;100929.53;;;31.31;38.10
62694;BME280;48759;52.544;13.418;2022-08-21T11:24:50;100926.53;;;35.13;34.19
62694;BME280;48759;52.544;13.418;2022-08-21T11:27:24;100931.03;;;33.11;35.43
62694;BME280;48759;52.544;13.418;2022-08-21T11:29:54;100929.97;;;32.85;34.82
62694;BME280;48759;52.544;13.418;2022-08-21T11:32:31;100924.31;;;34.93;33.04
62694;BME280;48759;52.544;13.418;2022-08-21T11:35:12;100929.50;;;34.74;33.96
62694;BME280;48759;52.544;13.418;2022-08-21T11:37:51;100928.16;;;34.80;31.03
62694;BME280;48759;52.544;13.418;2022-08-21T11:40:34;100919.44;;;33.80;31.79
62694;BME280;48759;52.544;13.418;2022-08-21T11:43:09;100923.16;;;34.85;30.97
62694;BME280;48759;52.544;13.418;2022-08-21T11:45:43;100919.50;;;33.97;31.08
62694;BME280;48759;52.544;13.418;2022-08-21T11:48:21;100920.44;;;34.72;30.30
62694;BME280;48759;52.544;13.418;2022-08-21T11:50:54;100915.31;;;34.82;30.37
62694;BME280;48759;52.544;13.418;2022-08-21T11:53:28;100916.84;;;34.97;29.75
62694;BME280;48759;52.544;13.418;2022-08-21T11:56:01;100911.59;;;36.32;27.80
62694;BME280;48759;52.544;13.418;2022-08-21T11:58:32;100925.84;;;34.82;29.10
62694;BME280;48759;52.544;13.418;2022-08-21T12:01:05;100914.78;;;35.66;28.87
62694;BME280;48759;52.544;13.418;2022-08-21T12:03:35;100916.06;;;36.33;28.01
62694;BME280;48759;52.544;13.418;2022-08-21T12:06:06;100912.16;;;35.44;28.11
62694;BME280;48759;52.544;13.418;2022-08-21T12:08:34;100913.44;;;35.64;28.32
62694;BME280;48759;52.544;13.418;2022-08-21T12:11:06;100915.38;;;33.72;30.54
62694;BME280;48759;52.544;13.418;2022-08-21T12:13:34;100915.16;;;35.48;29.08
62694;BME280;48759;52.544;13.418;2022-08-21T12:16:06;100910.31;;;36.12;28.44
62694;BME280;48759;52.544;13.418;2022-08-21T12:18:34;100900.84;;;34.44;29.85
62694;BME280;48759;52.544;13.418;2022-08-21T12:21:16;100907.97;;;34.90;29.74
62694;BME280;48759;52.544;13.418;2022-08-21T12:23:45;100902.47;;;35.19;28.85
62694;BME280;48759;52.544;13.418;2022-08-21T12:26:26;100902.47;;;35.02;29.79
62694;BME280;48759;52.544;13.418;2022-08-21T12:29:12;100897.31;;;33.68;31.06
62694;BME280;48759;52.544;13.418;2022-08-21T12:31:49;100903.34;;;33.22;31.55
62694;BME280;48759;52.544;13.418;2022-08-21T12:34:17;100892.94;;;32.46;32.93
62694;BME280;48759;52.544;13.418;2022-08-21T12:36:48;100897.53;;;33.27;31.14
62694;BME280;48759;52.544;13.418;2022-08-21T12:39:22;100880.28;;;34.30;30.08
62694;BME280;48759;52.544;13.418;2022-08-21T12:42:05;100889.81;;;33.95;31.24
62694;BME280;48759;52.544;13.418;2022-08-21T12:44:37;100894.63;;;33.63;31.24
62694;BME280;48759;52.544;13.418;2022-08-21T12:47:12;100896.44;;;34.78;30.70